Time;durP1;ratioP1;P1;durP2;ratioP2;P2;SDS_P1;SDS_P2;PMS_P1;PMS_P2;Temp;Humidity;BMP_temperature;BMP_pressure;BME280_temperature;BME280_humidity;BME280_pressure;Samples;Min_cycle;Max_cycle;Signal;HPM_P1;HPM_P2
2023/08/19 04:02:36;;;;;;;;;;;20.50;99.90;;;;;;4984042;23;19926;-76
2023/08/19 04:05:03;;;;;;;;;;;20.60;99.90;;;;;;4957354;29;19923;-76
2023/08/19 04:07:28;;;;;;;;;;;20.60;99.90;;;;;;4957352;29;19941;-76
2023/08/19 04:09:55;;;;;;;;;;;20.60;99.90;;;;;;4958581;29;19922;-75
2023/08/19 04:12:23;;;;;;;;;;;20.50;99.90;;;;;;4958377;28;19969;-77
2023/08/19 04:14:49;;;;;;;;;;;20.60;99.90;;;;;;4957187;29;20013;-76
2023/08/19 04:17:15;;;;;;;;;;;20.60;99.90;;;;;;4957025;29;19990;-75
2023/08/19 04:19:41;;;;;;;;;;;20.60;99.90;;;;;;4957048;29;19922;-74
2023/08/19 04:22:06;;;;;;;;;;;20.60;99.90;;;;;;4958916;28;19928;-76
2023/08/19 04:24:32;;;;;;;;;;;20.60;99.90;;;;;;4957102;29;20012;-77
2023/08/19 04:26:59;;;;;;;;;;;20.70;99.90;;;;;;4941435;29;19934;-77
2023/08/19 04:29:24;;;;;;;;;;;20.60;99.90;;;;;;4958533;29;20343;-77
2023/08/19 04:31:50;;;;;;;;;;;20.70;99.90;;;;;;4955833;28;19922;-75
2023/08/19 04:34:15;;;;;;;;;;;20.70;99.90;;;;;;4956860;29;20023;-77
2023/08/19 04:36:41;;;;;;;;;;;20.70;99.90;;;;;;4958177;29;19922;-76
2023/08/19 04:39:07;;;;;;;;;;;20.70;99.90;;;;;;4956815;29;19977;-76
2023/08/19 04:41:33;;;;;;;;;;;20.70;99.90;;;;;;4957887;28;19922;-74
2023/08/19 04:43:59;;;;;;;;;;;20.80;99.90;;;;;;4957828;29;19926;-75
2023/08/19 04:46:24;;;;;;;;;;;20.80;99.90;;;;;;4957967;29;20004;-77
2023/08/19 04:48:50;;;;;;;;;;;20.70;99.90;;;;;;4956612;29;20348;-76
2023/08/19 04:51:15;;;;;;;;;;;20.80;99.90;;;;;;4956727;28;20296;-75
2023/08/19 04:53:41;;;;;;;;;;;20.80;99.90;;;;;;4956401;29;19922;-76
2023/08/19 04:56:06;;;;;;;;;;;20.80;99.90;;;;;;4956420;29;20053;-75
2023/08/19 04:58:32;;;;;;;;;;;20.80;99.90;;;;;;4956478;29;19969;-77
2023/08/19 05:00:57;;;;;;;;;;;20.80;99.90;;;;;;4957387;28;19929;-76
2023/08/19 05:03:23;;;;;;;;;;;20.90;99.90;;;;;;4956422;29;19930;-77
2023/08/19 05:05:49;;;;;;;;;;;20.80;99.90;;;;;;4956245;29;20017;-76
2023/08/19 05:08:15;;;;;;;;;;;20.90;99.90;;;;;;4956249;29;20015;-78
2023/08/19 05:10:40;;;;;;;;;;;20.90;99.90;;;;;;4956120;28;19934;-76
2023/08/19 05:13:06;;;;;;;;;;;20.80;99.90;;;;;;4956192;29;19926;-76
2023/08/19 05:15:31;;;;;;;;;;;20.80;99.90;;;;;;4957634;29;19929;-76
2023/08/19 05:17:57;;;;;;;;;;;20.90;99.90;;;;;;4956082;29;19926;-76
2023/08/19 05:20:22;;;;;;;;;;;20.90;99.90;;;;;;4957058;28;19922;-76
2023/08/19 05:22:48;;;;;;;;;;;20.90;99.90;;;;;;4955994;29;20394;-77
2023/08/19 05:25:13;;;;;;;;;;;20.90;99.90;;;;;;4957062;29;19922;-75
2023/08/19 05:27:39;;;;;;;;;;;20.90;99.90;;;;;;4955857;29;20002;-77
2023/08/19 05:30:07;;;;;;;;;;;21.00;99.90;;;;;;4955764;29;19940;-77
2023/08/19 05:32:33;;;;;;;;;;;20.90;99.90;;;;;;4955633;28;19930;-75
2023/08/19 05:34:58;;;;;;;;;;;21.00;99.90;;;;;;4955986;29;20273;-77
2023/08/19 05:37:24;;;;;;;;;;;20.90;99.90;;;;;;4957223;29;19930;-76
2023/08/19 05:39:49;;;;;;;;;;;21.00;99.90;;;;;;4955701;29;20295;-77
2023/08/19 05:42:15;;;;;;;;;;;21.00;99.90;;;;;;4955542;28;20355;-75
2023/08/19 05:44:41;;;;;;;;;;;21.10;99.90;;;;;;4955706;28;19922;-75
2023/08/19 05:47:06;;;;;;;;;;;21.00;99.90;;;;;;4955424;29;19926;-76
2023/08/19 05:49:32;;;;;;;;;;;21.10;99.90;;;;;;4955390;29;19957;-75
2023/08/19 05:51:57;;;;;;;;;;;21.10;99.90;;;;;;4939382;29;19929;-75
2023/08/19 05:54:23;;;;;;;;;;;21.10;99.90;;;;;;4955409;29;20017;-75
2023/08/19 05:56:49;;;;;;;;;;;21.10;99.90;;;;;;4956559;28;19984;-75
2023/08/19 05:59:14;;;;;;;;;;;21.10;99.90;;;;;;4956514;29;19926;-75
2023/08/19 06:01:42;;;;;;;;;;;21.20;99.90;;;;;;4954504;28;21306;-76
2023/08/19 06:04:08;;;;;;;;;;;21.20;99.90;;;;;;4955523;29;19923;-77
2023/08/19 06:06:33;;;;;;;;;;;21.10;99.90;;;;;;4955139;29;19981;-75
2023/08/19 06:08:59;;;;;;;;;;;21.20;99.90;;;;;;4955148;29;19930;-76
2023/08/19 06:11:24;;;;;;;;;;;21.10;99.90;;;;;;4955023;28;19927;-76
2023/08/19 06:13:50;;;;;;;;;;;21.10;99.90;;;;;;4955341;29;20009;-76
2023/08/19 06:16:16;;;;;;;;;;;21.10;99.90;;;;;;4957057;29;20372;-76
2023/08/19 06:18:41;;;;;;;;;;;21.20;99.90;;;;;;4955320;29;20291;-77
2023/08/19 06:21:07;;;;;;;;;;;21.10;99.90;;;;;;4956057;28;20449;-75
2023/08/19 06:23:32;;;;;;;;;;;21.10;99.90;;;;;;4954880;29;19922;-76
2023/08/19 06:25:58;;;;;;;;;;;21.20;99.90;;;;;;4954954;29;19930;-75
2023/08/19 06:28:24;;;;;;;;;;;21.20;99.90;;;;;;4954819;29;19923;-76
2023/08/19 06:30:50;;;;;;;;;;;21.20;99.90;;;;;;4954970;28;19929;-77
2023/08/19 06:33:16;;;;;;;;;;;21.20;99.90;;;;;;4954729;29;19933;-75
2023/08/19 06:35:44;;;;;;;;;;;21.30;99.90;;;;;;4955926;29;19923;-77
2023/08/19 06:38:14;;;;;;;;;;;21.30;99.90;;;;;;4954986;29;19938;-77
2023/08/19 06:40:47;;;;;;;;;;;21.30;99.90;;;;;;4956087;28;20047;-76
2023/08/19 06:43:13;;;;;;;;;;;21.40;99.90;;;;;;4956402;29;19922;-76
2023/08/19 06:45:39;;;;;;;;;;;21.40;99.90;;;;;;4954507;29;19927;-76
2023/08/19 06:48:05;;;;;;;;;;;21.40;99.90;;;;;;4955255;29;19922;-76
2023/08/19 06:50:31;;;;;;;;;;;21.50;99.90;;;;;;4954534;28;19974;-77
2023/08/19 06:52:56;;;;;;;;;;;21.50;99.90;;;;;;4954562;29;19930;-77
2023/08/19 06:55:22;;;;;;;;;;;21.50;99.90;;;;;;4955231;28;19923;-77
2023/08/19 06:57:52;;;;;;;;;;;21.50;99.90;;;;;;4954374;29;19970;-78
2023/08/19 07:00:19;;;;;;;;;;;21.60;99.90;;;;;;4954225;28;19930;-74
2023/08/19 07:02:46;;;;;;;;;;;21.60;99.90;;;;;;4954374;29;19933;-76
2023/08/19 07:05:15;;;;;;;;;;;21.60;99.90;;;;;;4954209;29;20427;-76
2023/08/19 07:07:46;;;;;;;;;;;21.70;99.90;;;;;;4956149;29;20304;-76
2023/08/19 07:10:15;;;;;;;;;;;21.70;99.90;;;;;;4955417;28;19922;-76
2023/08/19 07:12:41;;;;;;;;;;;21.80;99.90;;;;;;4954299;29;20025;-75
2023/08/19 07:15:11;;;;;;;;;;;21.80;99.90;;;;;;4954342;29;20438;-75
2023/08/19 07:17:40;;;;;;;;;;;21.90;99.90;;;;;;4954221;29;19923;-76
2023/08/19 07:20:06;;;;;;;;;;;21.90;99.90;;;;;;4954459;29;19998;-75
2023/08/19 07:22:33;;;;;;;;;;;21.90;99.90;;;;;;4955636;28;20304;-76
2023/08/19 07:24:59;;;;;;;;;;;21.90;99.90;;;;;;4955725;29;19926;-76
2023/08/19 07:27:25;;;;;;;;;;;22.00;99.90;;;;;;4954114;29;19989;-76
2023/08/19 07:29:51;;;;;;;;;;;22.00;99.90;;;;;;4955671;29;20277;-75
2023/08/19 07:32:19;;;;;;;;;;;22.00;99.90;;;;;;4954017;28;20411;-76
2023/08/19 07:34:44;;;;;;;;;;;22.10;99.90;;;;;;4955481;29;19922;-76
2023/08/19 07:37:10;;;;;;;;;;;22.10;99.90;;;;;;4954362;29;20009;-76
2023/08/19 07:39:36;;;;;;;;;;;22.10;99.90;;;;;;4955400;29;19922;-76
2023/08/19 07:42:02;;;;;;;;;;;22.20;99.90;;;;;;4953925;28;19945;-75
2023/08/19 07:44:27;;;;;;;;;;;22.20;99.90;;;;;;4954110;29;19922;-75
2023/08/19 07:46:53;;;;;;;;;;;22.20;99.90;;;;;;4953974;29;19926;-75
2023/08/19 07:49:18;;;;;;;;;;;22.20;99.90;;;;;;4953977;29;19922;-75
2023/08/19 07:51:45;;;;;;;;;;;22.30;99.90;;;;;;4955139;28;19922;-75
2023/08/19 07:54:10;;;;;;;;;;;22.30;99.90;;;;;;4953899;29;20399;-75
2023/08/19 07:56:36;;;;;;;;;;;22.40;99.90;;;;;;4954304;29;19922;-76
2023/08/19 07:59:01;;;;;;;;;;;22.40;99.90;;;;;;4953806;29;20380;-80
2023/08/19 08:01:29;;;;;;;;;;;22.50;99.90;;;;;;4954039;28;19969;-80
2023/08/19 08:03:54;;;;;;;;;;;22.50;99.90;;;;;;4954153;29;19984;-76
2023/08/19 08:06:20;;;;;;;;;;;22.50;99.90;;;;;;4957202;28;19926;-77
2023/08/19 08:08:45;;;;;;;;;;;22.60;99.90;;;;;;4957945;29;19922;-78
2023/08/19 08:11:11;;;;;;;;;;;22.70;99.90;;;;;;4957548;28;19922;-78
2023/08/19 08:13:36;;;;;;;;;;;22.70;99.90;;;;;;4958116;29;19926;-78
2023/08/19 08:16:02;;;;;;;;;;;22.80;99.90;;;;;;4958812;29;20273;-77
2023/08/19 08:18:28;;;;;;;;;;;22.90;99.90;;;;;;4958634;29;19922;-75
2023/08/19 08:20:54;;;;;;;;;;;22.90;99.90;;;;;;4958550;28;20296;-78
2023/08/19 08:23:19;;;;;;;;;;;23.00;99.90;;;;;;4958167;29;19937;-78
2023/08/19 08:25:45;;;;;;;;;;;23.10;99.90;;;;;;4957781;29;19945;-79
2023/08/19 08:28:11;;;;;;;;;;;23.20;99.90;;;;;;4958031;29;20005;-78
2023/08/19 08:30:36;;;;;;;;;;;23.30;99.90;;;;;;4957318;28;20054;-77
2023/08/19 08:33:03;;;;;;;;;;;23.40;99.90;;;;;;4957763;29;19922;-78
2023/08/19 08:35:28;;;;;;;;;;;23.50;99.90;;;;;;4957325;29;19922;-78
2023/08/19 08:37:54;;;;;;;;;;;23.60;99.90;;;;;;4958616;29;19968;-80
2023/08/19 08:40:19;;;;;;;;;;;23.70;99.90;;;;;;4956922;28;19926;-78
2023/08/19 08:42:46;;;;;;;;;;;23.70;99.90;;;;;;4956797;29;19930;-77
2023/08/19 08:45:11;;;;;;;;;;;23.70;99.90;;;;;;4956857;29;19922;-77
2023/08/19 08:47:38;;;;;;;;;;;23.70;99.90;;;;;;4958769;29;19949;-76
2023/08/19 08:50:04;;;;;;;;;;;23.70;99.90;;;;;;4956899;29;19927;-75
2023/08/19 08:52:30;;;;;;;;;;;23.70;99.90;;;;;;4956592;28;20343;-78
2023/08/19 08:54:57;;;;;;;;;;;23.70;99.90;;;;;;4956763;29;19933;-78
2023/08/19 08:57:22;;;;;;;;;;;23.70;99.90;;;;;;4956879;29;19923;-79
2023/08/19 08:59:48;;;;;;;;;;;23.70;99.90;;;;;;4957931;29;19922;-77
2023/08/19 09:02:14;;;;;;;;;;;23.70;99.90;;;;;;4956534;28;20010;-77
2023/08/19 09:04:44;;;;;;;;;;;23.80;99.90;;;;;;4956677;29;19929;-78
2023/08/19 09:07:12;;;;;;;;;;;23.90;99.90;;;;;;4956932;29;19927;-78
2023/08/19 09:09:40;;;;;;;;;;;24.10;99.90;;;;;;4957575;29;20001;-78
2023/08/19 09:12:09;;;;;;;;;;;24.20;99.90;;;;;;4956710;28;19977;-79
2023/08/19 09:14:40;;;;;;;;;;;24.20;99.90;;;;;;4957468;29;19926;-75
2023/08/19 09:17:06;;;;;;;;;;;24.20;99.90;;;;;;4956958;29;20444;-78
2023/08/19 09:19:31;;;;;;;;;;;24.20;99.90;;;;;;4956787;28;19922;-80
2023/08/19 09:21:57;;;;;;;;;;;24.30;99.90;;;;;;4956064;28;19922;-77
2023/08/19 09:24:23;;;;;;;;;;;24.20;99.90;;;;;;4956382;29;19929;-78
2023/08/19 09:26:54;;;;;;;;;;;24.20;99.90;;;;;;4955773;29;19926;-77
2023/08/19 09:29:19;;;;;;;;;;;24.20;99.90;;;;;;4955577;29;19922;-77
2023/08/19 09:31:45;;;;;;;;;;;24.20;99.90;;;;;;4955697;28;19927;-79
2023/08/19 09:34:14;;;;;;;;;;;24.10;99.90;;;;;;4955777;29;19981;-76
2023/08/19 09:36:40;;;;;;;;;;;24.10;99.90;;;;;;4955639;29;19969;-76
2023/08/19 09:39:05;;;;;;;;;;;24.10;99.90;;;;;;4957125;29;19962;-78
2023/08/19 09:41:31;;;;;;;;;;;24.20;99.90;;;;;;4955502;28;20363;-76
2023/08/19 09:43:57;;;;;;;;;;;24.10;99.90;;;;;;4955652;29;19929;-78
2023/08/19 09:46:32;;;;;;;;;;;24.10;99.90;;;;;;4956156;29;20335;-78
2023/08/19 09:48:57;;;;;;;;;;;24.10;99.90;;;;;;4954589;29;19922;-79
2023/08/19 09:51:27;;;;;;;;;;;24.00;99.90;;;;;;4956926;28;19930;-78
2023/08/19 09:53:53;;;;;;;;;;;24.00;99.90;;;;;;4955687;29;20458;-77
2023/08/19 09:56:25;;;;;;;;;;;23.90;99.90;;;;;;4955807;29;19922;-77
2023/08/19 09:58:52;;;;;;;;;;;24.00;99.90;;;;;;4956760;29;19926;-78
2023/08/19 10:01:20;;;;;;;;;;;23.90;99.90;;;;;;4955626;28;19957;-76
2023/08/19 10:03:46;;;;;;;;;;;23.90;99.90;;;;;;4956938;28;19927;-77
2023/08/19 10:06:13;;;;;;;;;;;23.90;99.90;;;;;;4955615;29;19926;-77
2023/08/19 10:08:42;;;;;;;;;;;24.00;99.90;;;;;;4955776;29;19922;-75
2023/08/19 10:11:08;;;;;;;;;;;24.10;99.90;;;;;;4955350;28;20456;-76
2023/08/19 10:13:34;;;;;;;;;;;24.10;99.90;;;;;;4955119;29;20017;-77
2023/08/19 10:16:01;;;;;;;;;;;24.10;99.90;;;;;;4956344;29;19929;-75
2023/08/19 10:18:28;;;;;;;;;;;24.20;99.90;;;;;;4954891;29;19930;-78
2023/08/19 10:20:55;;;;;;;;;;;24.30;99.90;;;;;;4956383;28;19922;-80
2023/08/19 10:23:21;;;;;;;;;;;24.40;99.90;;;;;;4956251;29;20414;-78
2023/08/19 10:25:47;;;;;;;;;;;24.40;99.90;;;;;;4955454;29;19926;-78
2023/08/19 10:28:13;;;;;;;;;;;24.50;99.90;;;;;;4955913;29;19930;-80
2023/08/19 10:30:39;;;;;;;;;;;24.50;99.90;;;;;;4955020;28;19922;-78
2023/08/19 10:33:27;;;;;;;;;;;24.50;99.90;;;;;;4955616;29;19938;-77
2023/08/19 10:36:03;;;;;;;;;;;24.50;99.90;;;;;;4955617;29;19974;-77
2023/08/19 10:38:41;;;;;;;;;;;24.50;99.90;;;;;;4956241;29;19923;-78
2023/08/19 10:41:15;;;;;;;;;;;24.60;99.90;;;;;;4955473;28;20257;-79
2023/08/19 10:43:59;;;;;;;;;;;24.60;99.90;;;;;;4956348;29;19930;-75
2023/08/19 10:46:26;;;;;;;;;;;24.70;99.90;;;;;;4954815;29;19927;-79
2023/08/19 10:48:51;;;;;;;;;;;24.90;99.90;;;;;;4955603;29;19923;-77
2023/08/19 10:51:17;;;;;;;;;;;24.90;99.90;;;;;;4955053;28;19957;-77
2023/08/19 10:53:50;;;;;;;;;;;25.10;99.90;;;;;;4956909;28;20017;-78
2023/08/19 10:56:17;;;;;;;;;;;25.20;99.90;;;;;;4956399;29;20025;-77
2023/08/19 10:58:43;;;;;;;;;;;25.30;99.90;;;;;;4955879;29;19929;-78
2023/08/19 11:01:09;;;;;;;;;;;25.30;99.90;;;;;;4954843;28;19926;-79
2023/08/19 11:03:34;;;;;;;;;;;25.40;99.90;;;;;;4956893;29;19922;-78
2023/08/19 11:06:04;;;;;;;;;;;25.50;99.90;;;;;;4956156;29;20392;-79
2023/08/19 11:08:30;;;;;;;;;;;25.50;99.90;;;;;;4954869;29;20382;-76
2023/08/19 11:10:56;;;;;;;;;;;25.50;99.90;;;;;;4955078;28;20021;-79
2023/08/19 11:13:22;;;;;;;;;;;25.60;99.90;;;;;;4954727;29;19923;-78
2023/08/19 11:15:49;;;;;;;;;;;25.70;99.90;;;;;;4956488;29;19926;-77
2023/08/19 11:18:21;;;;;;;;;;;25.70;99.90;;;;;;4954743;29;19922;-78
2023/08/19 11:20:47;;;;;;;;;;;25.80;99.90;;;;;;4954658;28;20376;-75
2023/08/19 11:23:12;;;;;;;;;;;25.70;99.90;;;;;;4954728;29;19923;-75
2023/08/19 11:25:38;;;;;;;;;;;25.70;99.90;;;;;;4954844;29;20372;-77
2023/08/19 11:28:04;;;;;;;;;;;25.60;99.90;;;;;;4955898;28;19926;-77
2023/08/19 11:30:30;;;;;;;;;;;25.60;99.90;;;;;;4954205;28;20311;-76
2023/08/19 11:32:56;;;;;;;;;;;25.50;99.90;;;;;;4954283;29;20020;-76
2023/08/19 11:35:22;;;;;;;;;;;25.50;99.90;;;;;;4944471;29;20067;-77
2023/08/19 11:37:47;;;;;;;;;;;25.40;99.90;;;;;;4950077;29;20283;-76
2023/08/19 11:40:13;;;;;;;;;;;25.20;99.90;;;;;;4937011;29;19967;-75
2023/08/19 11:42:39;;;;;;;;;;;25.10;99.90;;;;;;4939895;29;20369;-77
2023/08/19 11:45:10;;;;;;;;;;;25.00;99.90;;;;;;4938663;29;19923;-76
2023/08/19 11:47:35;;;;;;;;;;;24.90;99.90;;;;;;4938764;29;19973;-77
2023/08/19 11:50:07;;;;;;;;;;;24.70;99.90;;;;;;4938526;29;20379;-76
2023/08/19 11:52:33;;;;;;;;;;;24.50;99.90;;;;;;4939678;29;19923;-75
2023/08/19 11:54:58;;;;;;;;;;;24.20;99.90;;;;;;4938418;29;20440;-77
2023/08/19 11:57:24;;;;;;;;;;;24.20;99.90;;;;;;4938450;29;19930;-76
2023/08/19 11:59:54;;;;;;;;;;;24.00;99.90;;;;;;4938337;29;19950;-76
2023/08/19 12:02:19;;;;;;;;;;;24.00;99.90;;;;;;4939407;29;19973;-74
2023/08/19 12:04:45;;;;;;;;;;;23.90;99.90;;;;;;4938299;29;19930;-75
2023/08/19 12:07:12;;;;;;;;;;;23.90;99.90;;;;;;4938110;29;19942;-76
2023/08/19 12:09:38;;;;;;;;;;;23.80;99.90;;;;;;4938195;29;19923;-76
2023/08/19 12:12:08;;;;;;;;;;;23.80;99.90;;;;;;4938073;29;19930;-76
2023/08/19 12:14:33;;;;;;;;;;;23.70;99.90;;;;;;4938095;29;19930;-77
2023/08/19 12:16:59;;;;;;;;;;;23.70;99.90;;;;;;4938402;29;19923;-75
2023/08/19 12:19:24;;;;;;;;;;;23.70;99.90;;;;;;4938387;29;20391;-77
2023/08/19 12:21:50;;;;;;;;;;;23.70;99.90;;;;;;4938164;29;19970;-75
2023/08/19 12:24:15;;;;;;;;;;;23.80;99.90;;;;;;4938194;29;20411;-78
2023/08/19 12:26:41;;;;;;;;;;;23.80;99.90;;;;;;4937875;29;19981;-76
2023/08/19 12:29:06;;;;;;;;;;;23.90;99.90;;;;;;4937890;29;19926;-76
2023/08/19 12:31:32;;;;;;;;;;;24.00;99.90;;;;;;4938924;29;19930;-77
2023/08/19 12:33:57;;;;;;;;;;;24.00;99.90;;;;;;4937719;29;20401;-76
2023/08/19 12:36:23;;;;;;;;;;;24.00;99.90;;;;;;4937712;29;19929;-78
2023/08/19 12:38:48;;;;;;;;;;;24.10;99.90;;;;;;4938956;29;19971;-76
2023/08/19 12:41:14;;;;;;;;;;;24.10;99.90;;;;;;4937527;29;19966;-76
2023/08/19 12:43:40;;;;;;;;;;;24.20;99.90;;;;;;4937451;29;19961;-75
2023/08/19 12:46:05;;;;;;;;;;;24.30;99.90;;;;;;4937708;29;19930;-75
2023/08/19 12:48:31;;;;;;;;;;;24.30;99.90;;;;;;4937431;29;19923;-76
2023/08/19 12:50:56;;;;;;;;;;;24.40;99.90;;;;;;4949474;28;19969;-76
2023/08/19 12:53:22;;;;;;;;;;;24.40;99.90;;;;;;4957012;28;20296;-77
2023/08/19 12:55:47;;;;;;;;;;;24.40;99.90;;;;;;4957046;29;19922;-77
2023/08/19 12:58:13;;;;;;;;;;;24.40;99.90;;;;;;4956669;29;19997;-76
2023/08/19 13:00:38;;;;;;;;;;;24.40;99.90;;;;;;4956754;28;20335;-80
2023/08/19 13:03:04;;;;;;;;;;;24.30;99.90;;;;;;4940759;29;19922;-77
2023/08/19 13:05:29;;;;;;;;;;;24.30;99.90;;;;;;4956550;29;19923;-76
2023/08/19 13:07:55;;;;;;;;;;;24.20;99.90;;;;;;4958081;29;20292;-79
2023/08/19 13:10:21;;;;;;;;;;;24.10;99.90;;;;;;4956588;28;20404;-78
2023/08/19 13:12:47;;;;;;;;;;;24.10;99.90;;;;;;4956441;29;20277;-78
2023/08/19 13:15:17;;;;;;;;;;;24.10;99.90;;;;;;4957479;29;19923;-78
2023/08/19 13:17:43;;;;;;;;;;;24.10;99.90;;;;;;4956707;29;20451;-76
2023/08/19 13:20:09;;;;;;;;;;;24.00;99.90;;;;;;4956546;29;19980;-76
2023/08/19 13:22:35;;;;;;;;;;;24.00;99.90;;;;;;4956417;28;19962;-77
2023/08/19 13:25:01;;;;;;;;;;;24.00;99.90;;;;;;4956360;29;19926;-77
2023/08/19 13:27:26;;;;;;;;;;;24.10;99.90;;;;;;4955889;29;20387;-78
2023/08/19 13:29:52;;;;;;;;;;;24.00;99.90;;;;;;4956270;29;19930;-76
2023/08/19 13:32:18;;;;;;;;;;;24.10;99.90;;;;;;4955798;28;19922;-74
2023/08/19 13:34:44;;;;;;;;;;;24.00;99.90;;;;;;4955784;29;19923;-76
2023/08/19 13:37:10;;;;;;;;;;;24.10;99.90;;;;;;4956756;29;19977;-76
2023/08/19 13:39:35;;;;;;;;;;;24.10;99.90;;;;;;4955709;28;19926;-77
2023/08/19 13:42:01;;;;;;;;;;;24.10;99.90;;;;;;4955913;28;19922;-76
2023/08/19 13:44:27;;;;;;;;;;;24.00;99.90;;;;;;4956191;29;20388;-77
2023/08/19 13:46:53;;;;;;;;;;;24.00;99.90;;;;;;4957003;29;19977;-76
2023/08/19 13:49:19;;;;;;;;;;;23.90;99.90;;;;;;4955709;29;19926;-74
2023/08/19 13:51:46;;;;;;;;;;;23.90;99.90;;;;;;4956068;28;19985;-76
2023/08/19 13:54:11;;;;;;;;;;;23.90;99.90;;;;;;4955874;29;19922;-81
2023/08/19 13:56:37;;;;;;;;;;;23.80;99.90;;;;;;4956084;29;19976;-76
2023/08/19 13:59:03;;;;;;;;;;;23.80;99.90;;;;;;4957136;29;19922;-77
2023/08/19 14:01:28;;;;;;;;;;;23.70;99.90;;;;;;4955561;28;19922;-75
2023/08/19 14:03:54;;;;;;;;;;;23.70;99.90;;;;;;4955512;28;19923;-77
2023/08/19 14:06:19;;;;;;;;;;;23.70;99.90;;;;;;4955833;29;20014;-77
2023/08/19 14:08:45;;;;;;;;;;;23.70;99.90;;;;;;4955848;29;19930;-77
2023/08/19 14:11:12;;;;;;;;;;;23.70;99.90;;;;;;4955060;28;20013;-76
2023/08/19 14:13:38;;;;;;;;;;;23.70;99.90;;;;;;4955054;29;19938;-76
2023/08/19 14:16:03;;;;;;;;;;;23.60;99.90;;;;;;4956421;29;19927;-76
2023/08/19 14:18:29;;;;;;;;;;;23.50;99.90;;;;;;4939193;29;20423;-77
2023/08/19 14:20:54;;;;;;;;;;;23.50;99.90;;;;;;4956250;28;19923;-78
2023/08/19 14:23:20;;;;;;;;;;;23.40;99.90;;;;;;4954907;29;19962;-75
2023/08/19 14:25:45;;;;;;;;;;;23.20;99.90;;;;;;4955780;29;20025;-76
2023/08/19 14:28:11;;;;;;;;;;;23.20;99.90;;;;;;4956063;29;19923;-76
2023/08/19 14:30:37;;;;;;;;;;;23.10;99.90;;;;;;4954751;28;19980;-77
2023/08/19 14:33:03;;;;;;;;;;;23.10;99.90;;;;;;4955981;28;20021;-75
2023/08/19 14:35:28;;;;;;;;;;;23.00;99.90;;;;;;4955946;29;19929;-76
2023/08/19 14:37:54;;;;;;;;;;;22.90;99.90;;;;;;4955463;29;19923;-75
2023/08/19 14:40:23;;;;;;;;;;;22.90;99.90;;;;;;4955478;28;20389;-76
2023/08/19 14:42:49;;;;;;;;;;;22.80;99.90;;;;;;4954622;29;20057;-76
2023/08/19 14:45:15;;;;;;;;;;;22.70;99.90;;;;;;4954860;29;19981;-77
2023/08/19 14:47:41;;;;;;;;;;;22.60;99.90;;;;;;4954993;29;20399;-77
2023/08/19 14:50:07;;;;;;;;;;;22.50;99.90;;;;;;4954475;29;19922;-77
2023/08/19 14:52:32;;;;;;;;;;;22.50;99.90;;;;;;4938902;29;19923;-76
2023/08/19 14:54:58;;;;;;;;;;;22.40;99.90;;;;;;4954482;29;19933;-78
2023/08/19 14:57:23;;;;;;;;;;;22.40;99.90;;;;;;4955252;29;19922;-77
2023/08/19 14:59:49;;;;;;;;;;;22.30;99.90;;;;;;4955106;29;20384;-76
2023/08/19 15:02:14;;;;;;;;;;;22.30;99.90;;;;;;4954507;28;20269;-77
2023/08/19 15:04:40;;;;;;;;;;;22.30;99.90;;;;;;4954295;29;20392;-77
2023/08/19 15:07:05;;;;;;;;;;;22.30;99.90;;;;;;4954552;29;19930;-75
2023/08/19 15:09:31;;;;;;;;;;;22.20;99.90;;;;;;4954697;29;19924;-76
2023/08/19 15:11:56;;;;;;;;;;;22.20;99.90;;;;;;4939061;29;19926;-77
2023/08/19 15:14:22;;;;;;;;;;;22.10;99.90;;;;;;4954145;29;19930;-77
2023/08/19 15:16:47;;;;;;;;;;;22.00;99.90;;;;;;4940440;29;19978;-75
2023/08/19 15:19:13;;;;;;;;;;;22.00;99.90;;;;;;4959526;29;19922;-76
2023/08/19 15:21:39;;;;;;;;;;;21.90;99.90;;;;;;4942188;29;20385;-77
2023/08/19 15:24:04;;;;;;;;;;;21.90;99.90;;;;;;4959132;29;19922;-78
2023/08/19 15:26:30;;;;;;;;;;;21.80;99.90;;;;;;4958138;29;20336;-78
2023/08/19 15:28:56;;;;;;;;;;;21.80;99.90;;;;;;4958808;29;19926;-79
2023/08/19 15:31:23;;;;;;;;;;;21.80;99.90;;;;;;4958160;28;19982;-79
2023/08/19 15:33:49;;;;;;;;;;;21.70;99.90;;;;;;4942517;29;19922;-80
2023/08/19 15:36:14;;;;;;;;;;;21.70;99.90;;;;;;4958492;29;19929;-78
2023/08/19 15:38:40;;;;;;;;;;;21.70;99.90;;;;;;4958141;29;20005;-79
2023/08/19 15:41:05;;;;;;;;;;;21.70;99.90;;;;;;4958129;28;19927;-77
2023/08/19 15:43:31;;;;;;;;;;;21.70;99.90;;;;;;4958186;29;19967;-80
2023/08/19 15:45:56;;;;;;;;;;;21.80;99.90;;;;;;4942187;29;19926;-80
2023/08/19 15:48:22;;;;;;;;;;;21.80;99.90;;;;;;4959682;29;19923;-80
2023/08/19 15:50:47;;;;;;;;;;;21.80;99.90;;;;;;4958355;28;20421;-79
2023/08/19 15:53:13;;;;;;;;;;;21.90;99.90;;;;;;4958297;29;20419;-82
2023/08/19 15:55:39;;;;;;;;;;;22.00;99.90;;;;;;4942601;29;20416;-78
2023/08/19 15:58:04;;;;;;;;;;;22.20;99.90;;;;;;4957840;29;19922;-77
2023/08/19 16:00:30;;;;;;;;;;;22.40;99.90;;;;;;4958858;28;20053;-79
2023/08/19 16:02:56;;;;;;;;;;;22.50;99.90;;;;;;4957610;29;19926;-78
2023/08/19 16:05:21;;;;;;;;;;;22.60;99.90;;;;;;4957795;29;19930;-78
2023/08/19 16:07:47;;;;;;;;;;;22.70;99.90;;;;;;4959771;29;19926;-78
2023/08/19 16:10:13;;;;;;;;;;;22.80;99.90;;;;;;4957497;29;19923;-80
2023/08/19 16:12:39;;;;;;;;;;;22.80;99.90;;;;;;4957947;28;19923;-79
2023/08/19 16:15:04;;;;;;;;;;;22.80;99.90;;;;;;4941311;29;19923;-78
2023/08/19 16:17:30;;;;;;;;;;;22.80;99.90;;;;;;4957290;29;19929;-79
2023/08/19 16:19:55;;;;;;;;;;;22.90;99.90;;;;;;4957513;29;19926;-80
2023/08/19 16:22:21;;;;;;;;;;;23.00;99.90;;;;;;4957357;28;19977;-80
2023/08/19 16:24:47;;;;;;;;;;;23.00;99.90;;;;;;4957110;29;19931;-80
2023/08/19 16:27:12;;;;;;;;;;;23.00;99.90;;;;;;4957140;28;19946;-78
2023/08/19 16:29:38;;;;;;;;;;;22.90;99.90;;;;;;4956658;29;20400;-79
2023/08/19 16:32:05;;;;;;;;;;;22.90;99.90;;;;;;4957090;28;19922;-78
2023/08/19 16:34:30;;;;;;;;;;;22.90;99.90;;;;;;4957628;29;19926;-78
2023/08/19 16:36:56;;;;;;;;;;;22.80;99.90;;;;;;4958071;29;20333;-79
2023/08/19 16:39:21;;;;;;;;;;;22.70;99.90;;;;;;4958354;29;19938;-78
2023/08/19 16:41:48;;;;;;;;;;;22.80;99.90;;;;;;4950372;28;20308;-79
2023/08/19 16:44:14;;;;;;;;;;;22.70;99.90;;;;;;4937586;29;19923;-78
2023/08/19 16:46:40;;;;;;;;;;;22.70;99.90;;;;;;4937745;29;19927;-79
2023/08/19 16:49:05;;;;;;;;;;;22.60;99.90;;;;;;4938046;29;19927;-78
2023/08/19 16:51:31;;;;;;;;;;;22.70;99.90;;;;;;4938259;29;20277;-78
2023/08/19 16:53:57;;;;;;;;;;;22.70;99.90;;;;;;4938780;29;19931;-79
2023/08/19 16:56:23;;;;;;;;;;;22.70;99.90;;;;;;4938014;29;20380;-79
2023/08/19 16:58:48;;;;;;;;;;;22.60;99.90;;;;;;4937690;29;20301;-78
2023/08/19 17:01:14;;;;;;;;;;;22.60;99.90;;;;;;4938600;29;19930;-79
2023/08/19 17:03:40;;;;;;;;;;;22.50;99.90;;;;;;4937477;29;19965;-77
2023/08/19 17:06:06;;;;;;;;;;;22.50;99.90;;;;;;4937564;29;19938;-78
2023/08/19 17:08:32;;;;;;;;;;;22.40;99.90;;;;;;4937414;29;20009;-78
2023/08/19 17:10:57;;;;;;;;;;;22.40;99.90;;;;;;4921434;29;20014;-78
2023/08/19 17:13:23;;;;;;;;;;;22.40;99.90;;;;;;4921309;29;19978;-79
2023/08/19 17:15:54;;;;;;;;;;;22.40;99.90;;;;;;4937434;29;20348;-78
2023/08/19 17:18:19;;;;;;;;;;;22.40;99.90;;;;;;4937201;29;20380;-80
2023/08/19 17:20:45;;;;;;;;;;;22.50;99.90;;;;;;4938228;29;19970;-79
2023/08/19 17:23:10;;;;;;;;;;;22.50;99.90;;;;;;4938375;29;19922;-79
2023/08/19 17:25:36;;;;;;;;;;;22.50;99.90;;;;;;4938537;29;19946;-79
2023/08/19 17:28:02;;;;;;;;;;;22.50;99.90;;;;;;4936922;29;20385;-77
2023/08/19 17:30:28;;;;;;;;;;;22.50;99.90;;;;;;4936850;29;19972;-79
2023/08/19 17:32:53;;;;;;;;;;;22.30;99.90;;;;;;4937163;29;19970;-79
2023/08/19 17:35:20;;;;;;;;;;;22.30;99.90;;;;;;4936761;29;20017;-80
2023/08/19 17:37:46;;;;;;;;;;;22.30;99.90;;;;;;4937169;29;20384;-82
2023/08/19 17:40:12;;;;;;;;;;;22.30;99.90;;;;;;4936352;29;19930;-79
2023/08/19 17:42:37;;;;;;;;;;;22.40;99.90;;;;;;4937831;29;19930;-79
2023/08/19 17:45:03;;;;;;;;;;;22.50;99.90;;;;;;4936535;29;20017;-79
2023/08/19 17:47:29;;;;;;;;;;;22.50;99.90;;;;;;4952604;29;19982;-80
2023/08/19 17:49:55;;;;;;;;;;;22.60;99.90;;;;;;4955995;29;19981;-79
2023/08/19 17:52:20;;;;;;;;;;;22.60;99.90;;;;;;4955956;28;19922;-79
2023/08/19 17:54:46;;;;;;;;;;;22.40;99.90;;;;;;4955845;29;19926;-79
2023/08/19 17:57:12;;;;;;;;;;;22.30;99.90;;;;;;4956008;29;20063;-78
2023/08/19 17:59:37;;;;;;;;;;;22.10;99.90;;;;;;4956845;29;19949;-79
2023/08/19 18:02:03;;;;;;;;;;;21.90;99.90;;;;;;4955363;28;20392;-79
2023/08/19 18:04:28;;;;;;;;;;;21.90;99.90;;;;;;4955473;29;19961;-79
2023/08/19 18:06:54;;;;;;;;;;;21.80;99.90;;;;;;4955498;29;19927;-78
2023/08/19 18:09:21;;;;;;;;;;;21.70;99.90;;;;;;4955941;29;20407;-78
2023/08/19 18:11:47;;;;;;;;;;;21.70;99.90;;;;;;4955462;28;20273;-78